sensor_id;sensor_type;location;lat;lon;timestamp;P1;durP1;ratioP1;P2;durP2;ratioP2
83511;SDS011;73446;0.000;0.000;2024-01-15T00:01:35;2.22;;;1.95;;
83511;SDS011;73446;0.000;0.000;2024-01-15T00:04:20;2.25;;;1.80;;
83511;SDS011;73446;0.000;0.000;2024-01-15T00:07:05;2.10;;;1.65;;
83511;SDS011;73446;0.000;0.000;2024-01-15T00:09:49;2.63;;;1.92;;
83511;SDS011;73446;0.000;0.000;2024-01-15T00:12:35;2.42;;;2.00;;
83511;SDS011;73446;0.000;0.000;2024-01-15T00:15:19;2.15;;;1.40;;
83511;SDS011;73446;0.000;0.000;2024-01-15T00:18:03;1.67;;;0.82;;
83511;SDS011;73446;0.000;0.000;2024-01-15T00:20:48;3.88;;;1.67;;
83511;SDS011;73446;0.000;0.000;2024-01-15T00:23:31;2.47;;;1.73;;
83511;SDS011;73446;0.000;0.000;2024-01-15T00:26:15;2.35;;;1.38;;
83511;SDS011;73446;0.000;0.000;2024-01-15T00:28:59;2.08;;;1.58;;
83511;SDS011;73446;0.000;0.000;2024-01-15T00:31:43;2.35;;;1.58;;
83511;SDS011;73446;0.000;0.000;2024-01-15T00:34:27;3.45;;;2.22;;
83511;SDS011;73446;0.000;0.000;2024-01-15T00:37:11;2.40;;;1.80;;
83511;SDS011;73446;0.000;0.000;2024-01-15T00:39:55;1.90;;;1.38;;
83511;SDS011;73446;0.000;0.000;2024-01-15T00:42:40;2.05;;;1.77;;
83511;SDS011;73446;0.000;0.000;2024-01-15T00:45:23;2.47;;;1.35;;
83511;SDS011;73446;0.000;0.000;2024-01-15T00:48:07;3.28;;;1.83;;
83511;SDS011;73446;0.000;0.000;2024-01-15T00:50:51;2.55;;;1.73;;
83511;SDS011;73446;0.000;0.000;2024-01-15T00:53:38;2.40;;;1.58;;
83511;SDS011;73446;0.000;0.000;2024-01-15T00:56:22;1.90;;;1.20;;
83511;SDS011;73446;0.000;0.000;2024-01-15T00:59:06;1.80;;;1.40;;
83511;SDS011;73446;0.000;0.000;2024-01-15T01:01:50;3.10;;;1.55;;
83511;SDS011;73446;0.000;0.000;2024-01-15T01:04:34;2.35;;;1.95;;
83511;SDS011;73446;0.000;0.000;2024-01-15T01:07:18;2.03;;;1.52;;
83511;SDS011;73446;0.000;0.000;2024-01-15T01:10:03;2.40;;;1.42;;
83511;SDS011;73446;0.000;0.000;2024-01-15T01:12:47;2.50;;;1.45;;
83511;SDS011;73446;0.000;0.000;2024-01-15T01:15:32;2.42;;;1.75;;
83511;SDS011;73446;0.000;0.000;2024-01-15T01:18:16;2.58;;;1.48;;
83511;SDS011;73446;0.000;0.000;2024-01-15T01:21:00;2.30;;;1.67;;
83511;SDS011;73446;0.000;0.000;2024-01-15T01:23:44;2.53;;;1.15;;
83511;SDS011;73446;0.000;0.000;2024-01-15T01:26:28;1.70;;;1.40;;
83511;SDS011;73446;0.000;0.000;2024-01-15T01:29:12;2.38;;;2.15;;
83511;SDS011;73446;0.000;0.000;2024-01-15T01:31:56;2.58;;;2.20;;
83511;SDS011;73446;0.000;0.000;2024-01-15T01:34:41;3.72;;;1.95;;
83511;SDS011;73446;0.000;0.000;2024-01-15T01:37:29;3.33;;;1.67;;
83511;SDS011;73446;0.000;0.000;2024-01-15T01:40:13;2.20;;;1.27;;
83511;SDS011;73446;0.000;0.000;2024-01-15T01:42:57;2.58;;;1.80;;
83511;SDS011;73446;0.000;0.000;2024-01-15T01:45:41;2.00;;;1.17;;
83511;SDS011;73446;0.000;0.000;2024-01-15T01:48:25;2.05;;;1.42;;
83511;SDS011;73446;0.000;0.000;2024-01-15T01:51:09;2.38;;;1.50;;
83511;SDS011;73446;0.000;0.000;2024-01-15T01:53:54;2.72;;;2.20;;
83511;SDS011;73446;0.000;0.000;2024-01-15T01:56:39;2.13;;;1.92;;
83511;SDS011;73446;0.000;0.000;2024-01-15T01:59:27;3.22;;;1.98;;
83511;SDS011;73446;0.000;0.000;2024-01-15T02:02:12;2.38;;;2.13;;
83511;SDS011;73446;0.000;0.000;2024-01-15T02:04:57;2.75;;;2.42;;
83511;SDS011;73446;0.000;0.000;2024-01-15T02:07:41;2.75;;;2.05;;
83511;SDS011;73446;0.000;0.000;2024-01-15T02:10:26;2.05;;;1.73;;
83511;SDS011;73446;0.000;0.000;2024-01-15T02:13:10;2.40;;;1.58;;
83511;SDS011;73446;0.000;0.000;2024-01-15T02:15:54;3.28;;;1.25;;
83511;SDS011;73446;0.000;0.000;2024-01-15T02:18:45;1.40;;;1.10;;
83511;SDS011;73446;0.000;0.000;2024-01-15T02:21:31;1.98;;;1.45;;
83511;SDS011;73446;0.000;0.000;2024-01-15T02:24:15;2.13;;;1.58;;
83511;SDS011;73446;0.000;0.000;2024-01-15T02:26:59;3.33;;;1.55;;
83511;SDS011;73446;0.000;0.000;2024-01-15T02:29:43;2.70;;;2.17;;
83511;SDS011;73446;0.000;0.000;2024-01-15T02:32:27;2.30;;;2.00;;
83511;SDS011;73446;0.000;0.000;2024-01-15T02:35:11;2.08;;;1.55;;
83511;SDS011;73446;0.000;0.000;2024-01-15T02:37:55;2.05;;;1.30;;
83511;SDS011;73446;0.000;0.000;2024-01-15T02:40:39;2.00;;;1.00;;
83511;SDS011;73446;0.000;0.000;2024-01-15T02:43:23;2.38;;;1.70;;
83511;SDS011;73446;0.000;0.000;2024-01-15T02:46:07;2.28;;;1.65;;
83511;SDS011;73446;0.000;0.000;2024-01-15T02:48:51;3.30;;;1.75;;
83511;SDS011;73446;0.000;0.000;2024-01-15T02:51:35;2.75;;;1.90;;
83511;SDS011;73446;0.000;0.000;2024-01-15T02:54:19;2.55;;;1.33;;
83511;SDS011;73446;0.000;0.000;2024-01-15T02:57:03;2.50;;;1.38;;
83511;SDS011;73446;0.000;0.000;2024-01-15T02:59:47;2.70;;;1.55;;
83511;SDS011;73446;0.000;0.000;2024-01-15T03:02:31;2.17;;;0.82;;
83511;SDS011;73446;0.000;0.000;2024-01-15T03:05:16;2.00;;;1.55;;
83511;SDS011;73446;0.000;0.000;2024-01-15T03:08:00;2.53;;;0.57;;
83511;SDS011;73446;0.000;0.000;2024-01-15T03:10:44;1.95;;;1.20;;
83511;SDS011;73446;0.000;0.000;2024-01-15T03:13:28;1.98;;;1.77;;
83511;SDS011;73446;0.000;0.000;2024-01-15T03:16:12;2.05;;;1.45;;
83511;SDS011;73446;0.000;0.000;2024-01-15T03:18:56;2.15;;;1.23;;
83511;SDS011;73446;0.000;0.000;2024-01-15T03:21:39;2.45;;;1.65;;
83511;SDS011;73446;0.000;0.000;2024-01-15T03:24:24;1.83;;;1.42;;
83511;SDS011;73446;0.000;0.000;2024-01-15T03:27:07;2.17;;;1.30;;
83511;SDS011;73446;0.000;0.000;2024-01-15T03:29:51;2.78;;;1.33;;
83511;SDS011;73446;0.000;0.000;2024-01-15T03:32:35;2.00;;;1.17;;
83511;SDS011;73446;0.000;0.000;2024-01-15T03:35:19;2.60;;;1.65;;
83511;SDS011;73446;0.000;0.000;2024-01-15T03:38:03;2.17;;;1.55;;
83511;SDS011;73446;0.000;0.000;2024-01-15T03:40:48;1.52;;;1.17;;
83511;SDS011;73446;0.000;0.000;2024-01-15T03:43:32;1.40;;;1.02;;
83511;SDS011;73446;0.000;0.000;2024-01-15T03:46:16;2.22;;;1.85;;
83511;SDS011;73446;0.000;0.000;2024-01-15T03:49:00;2.38;;;1.98;;
83511;SDS011;73446;0.000;0.000;2024-01-15T03:51:44;1.48;;;1.23;;
83511;SDS011;73446;0.000;0.000;2024-01-15T03:54:28;1.90;;;1.55;;
83511;SDS011;73446;0.000;0.000;2024-01-15T03:57:12;2.47;;;1.50;;
83511;SDS011;73446;0.000;0.000;2024-01-15T03:59:56;2.17;;;1.25;;
83511;SDS011;73446;0.000;0.000;2024-01-15T04:02:40;1.90;;;1.52;;
83511;SDS011;73446;0.000;0.000;2024-01-15T04:05:23;1.90;;;1.52;;
83511;SDS011;73446;0.000;0.000;2024-01-15T04:08:08;1.67;;;1.48;;
83511;SDS011;73446;0.000;0.000;2024-01-15T04:10:52;1.58;;;1.45;;
83511;SDS011;73446;0.000;0.000;2024-01-15T04:13:36;1.98;;;1.15;;
83511;SDS011;73446;0.000;0.000;2024-01-15T04:16:20;1.52;;;1.15;;
83511;SDS011;73446;0.000;0.000;2024-01-15T04:19:04;1.30;;;1.17;;
83511;SDS011;73446;0.000;0.000;2024-01-15T04:21:48;2.03;;;1.77;;
83511;SDS011;73446;0.000;0.000;2024-01-15T04:24:32;1.48;;;1.15;;
83511;SDS011;73446;0.000;0.000;2024-01-15T04:27:16;1.83;;;1.00;;
83511;SDS011;73446;0.000;0.000;2024-01-15T04:30:00;2.00;;;1.48;;
83511;SDS011;73446;0.000;0.000;2024-01-15T04:32:44;1.50;;;1.17;;
83511;SDS011;73446;0.000;0.000;2024-01-15T04:35:31;1.40;;;0.50;;
83511;SDS011;73446;0.000;0.000;2024-01-15T04:38:15;1.90;;;1.42;;
83511;SDS011;73446;0.000;0.000;2024-01-15T04:40:59;1.70;;;1.02;;
83511;SDS011;73446;0.000;0.000;2024-01-15T04:43:43;1.70;;;1.60;;
83511;SDS011;73446;0.000;0.000;2024-01-15T04:49:13;3.65;;;1.45;;
83511;SDS011;73446;0.000;0.000;2024-01-15T04:51:57;1.83;;;0.90;;
83511;SDS011;73446;0.000;0.000;2024-01-15T04:54:41;2.10;;;1.45;;
83511;SDS011;73446;0.000;0.000;2024-01-15T04:57:25;1.83;;;1.02;;
83511;SDS011;73446;0.000;0.000;2024-01-15T05:00:10;1.50;;;1.05;;
83511;SDS011;73446;0.000;0.000;2024-01-15T05:02:58;1.40;;;1.00;;
83511;SDS011;73446;0.000;0.000;2024-01-15T05:05:42;1.40;;;0.98;;
83511;SDS011;73446;0.000;0.000;2024-01-15T05:08:26;1.88;;;1.73;;
83511;SDS011;73446;0.000;0.000;2024-01-15T05:11:10;1.85;;;1.60;;
83511;SDS011;73446;0.000;0.000;2024-01-15T05:13:54;2.03;;;1.63;;
83511;SDS011;73446;0.000;0.000;2024-01-15T05:16:39;1.88;;;1.38;;
83511;SDS011;73446;0.000;0.000;2024-01-15T05:19:23;1.60;;;1.15;;
83511;SDS011;73446;0.000;0.000;2024-01-15T05:22:07;1.55;;;0.70;;
83511;SDS011;73446;0.000;0.000;2024-01-15T05:24:51;2.03;;;1.33;;
83511;SDS011;73446;0.000;0.000;2024-01-15T05:27:35;1.83;;;1.02;;
83511;SDS011;73446;0.000;0.000;2024-01-15T05:30:20;2.78;;;2.58;;
83511;SDS011;73446;0.000;0.000;2024-01-15T05:33:04;3.65;;;3.45;;
83511;SDS011;73446;0.000;0.000;2024-01-15T05:35:48;1.63;;;1.00;;
83511;SDS011;73446;0.000;0.000;2024-01-15T05:38:33;2.42;;;1.10;;
83511;SDS011;73446;0.000;0.000;2024-01-15T05:41:17;1.60;;;1.35;;
83511;SDS011;73446;0.000;0.000;2024-01-15T05:44:01;1.83;;;1.15;;
83511;SDS011;73446;0.000;0.000;2024-01-15T05:46:45;1.70;;;1.15;;
83511;SDS011;73446;0.000;0.000;2024-01-15T05:49:29;1.55;;;1.13;;
83511;SDS011;73446;0.000;0.000;2024-01-15T05:52:13;1.77;;;1.42;;
83511;SDS011;73446;0.000;0.000;2024-01-15T05:54:57;1.77;;;1.65;;
83511;SDS011;73446;0.000;0.000;2024-01-15T05:57:41;1.75;;;1.27;;
83511;SDS011;73446;0.000;0.000;2024-01-15T06:00:25;1.25;;;0.82;;
83511;SDS011;73446;0.000;0.000;2024-01-15T06:03:09;1.42;;;1.30;;
83511;SDS011;73446;0.000;0.000;2024-01-15T06:05:53;1.92;;;1.60;;
83511;SDS011;73446;0.000;0.000;2024-01-15T06:08:37;2.85;;;2.65;;
83511;SDS011;73446;0.000;0.000;2024-01-15T06:11:21;1.65;;;0.93;;
83511;SDS011;73446;0.000;0.000;2024-01-15T06:14:05;5.03;;;1.35;;
83511;SDS011;73446;0.000;0.000;2024-01-15T06:16:49;1.73;;;1.33;;
83511;SDS011;73446;0.000;0.000;2024-01-15T06:19:34;1.52;;;0.95;;
83511;SDS011;73446;0.000;0.000;2024-01-15T06:22:18;2.85;;;0.90;;
83511;SDS011;73446;0.000;0.000;2024-01-15T06:25:02;4.40;;;1.23;;
83511;SDS011;73446;0.000;0.000;2024-01-15T06:27:46;1.80;;;1.02;;
83511;SDS011;73446;0.000;0.000;2024-01-15T06:30:30;3.72;;;1.02;;
83511;SDS011;73446;0.000;0.000;2024-01-15T06:33:14;2.42;;;1.08;;
83511;SDS011;73446;0.000;0.000;2024-01-15T06:35:58;3.17;;;1.55;;
83511;SDS011;73446;0.000;0.000;2024-01-15T06:38:43;4.22;;;1.85;;
83511;SDS011;73446;0.000;0.000;2024-01-15T06:41:28;3.88;;;1.80;;
83511;SDS011;73446;0.000;0.000;2024-01-15T06:44:12;4.90;;;0.90;;
83511;SDS011;73446;0.000;0.000;2024-01-15T06:46:59;4.57;;;1.40;;
83511;SDS011;73446;0.000;0.000;2024-01-15T06:49:45;2.33;;;1.00;;
83511;SDS011;73446;0.000;0.000;2024-01-15T06:52:30;2.15;;;0.68;;
83511;SDS011;73446;0.000;0.000;2024-01-15T06:55:14;4.57;;;1.02;;
83511;SDS011;73446;0.000;0.000;2024-01-15T06:57:58;5.40;;;2.20;;
83511;SDS011;73446;0.000;0.000;2024-01-15T07:00:42;2.85;;;1.08;;
83511;SDS011;73446;0.000;0.000;2024-01-15T07:03:26;3.70;;;1.10;;
83511;SDS011;73446;0.000;0.000;2024-01-15T07:06:12;2.97;;;1.25;;
83511;SDS011;73446;0.000;0.000;2024-01-15T07:08:56;2.90;;;1.13;;
83511;SDS011;73446;0.000;0.000;2024-01-15T07:11:44;5.15;;;1.38;;
83511;SDS011;73446;0.000;0.000;2024-01-15T07:14:29;3.63;;;2.22;;
83511;SDS011;73446;0.000;0.000;2024-01-15T07:17:13;2.33;;;1.95;;
83511;SDS011;73446;0.000;0.000;2024-01-15T07:20:00;2.58;;;1.35;;
83511;SDS011;73446;0.000;0.000;2024-01-15T07:22:48;2.33;;;1.33;;
83511;SDS011;73446;0.000;0.000;2024-01-15T07:25:32;2.17;;;1.48;;
83511;SDS011;73446;0.000;0.000;2024-01-15T07:28:16;4.55;;;0.98;;
83511;SDS011;73446;0.000;0.000;2024-01-15T07:31:00;3.03;;;0.32;;
83511;SDS011;73446;0.000;0.000;2024-01-15T07:33:45;2.15;;;0.90;;
83511;SDS011;73446;0.000;0.000;2024-01-15T07:36:30;3.03;;;1.42;;
83511;SDS011;73446;0.000;0.000;2024-01-15T07:39:14;2.67;;;1.40;;
83511;SDS011;73446;0.000;0.000;2024-01-15T07:41:58;1.20;;;0.75;;
83511;SDS011;73446;0.000;0.000;2024-01-15T07:44:42;1.95;;;1.10;;
83511;SDS011;73446;0.000;0.000;2024-01-15T07:47:26;2.83;;;1.33;;
83511;SDS011;73446;0.000;0.000;2024-01-15T07:50:11;3.83;;;1.45;;
83511;SDS011;73446;0.000;0.000;2024-01-15T07:52:55;3.63;;;2.35;;
83511;SDS011;73446;0.000;0.000;2024-01-15T07:55:39;3.33;;;1.27;;
83511;SDS011;73446;0.000;0.000;2024-01-15T07:58:23;1.60;;;1.25;;
83511;SDS011;73446;0.000;0.000;2024-01-15T08:01:07;2.83;;;1.05;;
83511;SDS011;73446;0.000;0.000;2024-01-15T08:03:51;1.45;;;0.98;;
83511;SDS011;73446;0.000;0.000;2024-01-15T08:06:35;1.98;;;1.33;;
83511;SDS011;73446;0.000;0.000;2024-01-15T08:09:19;2.15;;;1.27;;
83511;SDS011;73446;0.000;0.000;2024-01-15T08:12:03;1.85;;;1.35;;
83511;SDS011;73446;0.000;0.000;2024-01-15T08:14:49;1.58;;;0.85;;
83511;SDS011;73446;0.000;0.000;2024-01-15T08:17:34;2.40;;;1.15;;
83511;SDS011;73446;0.000;0.000;2024-01-15T08:20:18;1.92;;;1.13;;
83511;SDS011;73446;0.000;0.000;2024-01-15T08:23:02;1.17;;;1.00;;
83511;SDS011;73446;0.000;0.000;2024-01-15T08:25:47;2.00;;;0.98;;
83511;SDS011;73446;0.000;0.000;2024-01-15T08:28:31;1.80;;;1.10;;
83511;SDS011;73446;0.000;0.000;2024-01-15T08:31:14;1.85;;;1.08;;
83511;SDS011;73446;0.000;0.000;2024-01-15T08:33:59;1.70;;;1.10;;
83511;SDS011;73446;0.000;0.000;2024-01-15T08:36:45;1.10;;;0.20;;
83511;SDS011;73446;0.000;0.000;2024-01-15T08:39:29;1.88;;;1.13;;
83511;SDS011;73446;0.000;0.000;2024-01-15T08:42:13;1.48;;;1.02;;
83511;SDS011;73446;0.000;0.000;2024-01-15T08:44:57;4.63;;;1.85;;
83511;SDS011;73446;0.000;0.000;2024-01-15T08:47:41;2.78;;;1.13;;
83511;SDS011;73446;0.000;0.000;2024-01-15T08:50:25;0.90;;;0.75;;
83511;SDS011;73446;0.000;0.000;2024-01-15T08:53:09;2.08;;;1.20;;
83511;SDS011;73446;0.000;0.000;2024-01-15T08:55:53;2.15;;;1.30;;
83511;SDS011;73446;0.000;0.000;2024-01-15T08:58:37;1.50;;;0.38;;
83511;SDS011;73446;0.000;0.000;2024-01-15T09:01:21;2.15;;;1.50;;
83511;SDS011;73446;0.000;0.000;2024-01-15T09:04:06;1.75;;;1.25;;
83511;SDS011;73446;0.000;0.000;2024-01-15T09:06:50;2.67;;;1.13;;
83511;SDS011;73446;0.000;0.000;2024-01-15T09:09:34;2.83;;;1.83;;
83511;SDS011;73446;0.000;0.000;2024-01-15T09:12:19;1.35;;;1.02;;
83511;SDS011;73446;0.000;0.000;2024-01-15T09:15:04;1.98;;;0.80;;
83511;SDS011;73446;0.000;0.000;2024-01-15T09:17:49;1.55;;;1.20;;
83511;SDS011;73446;0.000;0.000;2024-01-15T09:20:33;1.58;;;0.95;;
83511;SDS011;73446;0.000;0.000;2024-01-15T09:23:17;1.77;;;1.23;;
83511;SDS011;73446;0.000;0.000;2024-01-15T09:26:01;1.63;;;1.08;;
83511;SDS011;73446;0.000;0.000;2024-01-15T09:28:46;1.45;;;1.15;;
83511;SDS011;73446;0.000;0.000;2024-01-15T09:31:30;1.88;;;1.52;;
83511;SDS011;73446;0.000;0.000;2024-01-15T09:34:15;1.70;;;1.20;;
83511;SDS011;73446;0.000;0.000;2024-01-15T09:36:59;1.60;;;1.23;;
83511;SDS011;73446;0.000;0.000;2024-01-15T09:39:44;1.67;;;0.75;;
83511;SDS011;73446;0.000;0.000;2024-01-15T09:42:28;2.13;;;0.95;;
83511;SDS011;73446;0.000;0.000;2024-01-15T09:45:12;1.67;;;1.40;;
83511;SDS011;73446;0.000;0.000;2024-01-15T09:47:57;1.45;;;0.95;;
83511;SDS011;73446;0.000;0.000;2024-01-15T09:50:42;2.95;;;1.38;;
83511;SDS011;73446;0.000;0.000;2024-01-15T09:53:26;2.58;;;1.23;;
83511;SDS011;73446;0.000;0.000;2024-01-15T09:56:11;2.25;;;1.90;;
83511;SDS011;73446;0.000;0.000;2024-01-15T09:58:55;2.63;;;1.17;;
83511;SDS011;73446;0.000;0.000;2024-01-15T10:01:40;5.68;;;1.40;;
83511;SDS011;73446;0.000;0.000;2024-01-15T10:04:26;2.65;;;1.63;;
83511;SDS011;73446;0.000;0.000;2024-01-15T10:07:12;4.32;;;1.33;;
83511;SDS011;73446;0.000;0.000;2024-01-15T10:10:03;4.50;;;1.15;;
83511;SDS011;73446;0.000;0.000;2024-01-15T10:12:47;5.20;;;1.83;;
83511;SDS011;73446;0.000;0.000;2024-01-15T10:15:35;1.65;;;1.00;;
83511;SDS011;73446;0.000;0.000;2024-01-15T10:18:21;1.75;;;0.75;;
83511;SDS011;73446;0.000;0.000;2024-01-15T10:21:08;3.10;;;0.80;;
83511;SDS011;73446;0.000;0.000;2024-01-15T10:23:52;4.38;;;1.38;;
83511;SDS011;73446;0.000;0.000;2024-01-15T10:26:36;2.42;;;1.15;;
83511;SDS011;73446;0.000;0.000;2024-01-15T10:29:20;3.97;;;0.95;;
83511;SDS011;73446;0.000;0.000;2024-01-15T10:32:07;3.78;;;0.70;;
83511;SDS011;73446;0.000;0.000;2024-01-15T10:34:55;3.42;;;1.38;;
83511;SDS011;73446;0.000;0.000;2024-01-15T10:37:39;2.80;;;1.17;;
83511;SDS011;73446;0.000;0.000;2024-01-15T10:40:25;3.38;;;1.25;;
83511;SDS011;73446;0.000;0.000;2024-01-15T10:43:09;2.33;;;0.85;;
83511;SDS011;73446;0.000;0.000;2024-01-15T10:45:53;1.73;;;0.85;;
83511;SDS011;73446;0.000;0.000;2024-01-15T10:48:37;2.08;;;1.17;;
83511;SDS011;73446;0.000;0.000;2024-01-15T10:51:22;2.75;;;1.23;;
83511;SDS011;73446;0.000;0.000;2024-01-15T10:54:08;2.42;;;1.35;;
83511;SDS011;73446;0.000;0.000;2024-01-15T10:56:54;3.75;;;1.45;;
83511;SDS011;73446;0.000;0.000;2024-01-15T10:59:39;2.20;;;0.95;;
83511;SDS011;73446;0.000;0.000;2024-01-15T11:02:24;2.15;;;1.95;;
83511;SDS011;73446;0.000;0.000;2024-01-15T11:05:10;3.22;;;1.30;;
83511;SDS011;73446;0.000;0.000;2024-01-15T11:07:58;2.33;;;0.70;;
83511;SDS011;73446;0.000;0.000;2024-01-15T11:16:17;3.03;;;0.80;;
83511;SDS011;73446;0.000;0.000;2024-01-15T11:19:02;2.30;;;1.17;;
83511;SDS011;73446;0.000;0.000;2024-01-15T11:21:46;1.85;;;0.73;;
83511;SDS011;73446;0.000;0.000;2024-01-15T11:24:49;4.80;;;0.93;;
83511;SDS011;73446;0.000;0.000;2024-01-15T11:27:39;2.53;;;0.82;;
83511;SDS011;73446;0.000;0.000;2024-01-15T11:30:27;2.60;;;0.60;;
83511;SDS011;73446;0.000;0.000;2024-01-15T11:36:17;5.88;;;0.80;;
83511;SDS011;73446;0.000;0.000;2024-01-15T11:39:19;4.35;;;1.35;;
83511;SDS011;73446;0.000;0.000;2024-01-15T11:42:11;2.30;;;1.08;;
83511;SDS011;73446;0.000;0.000;2024-01-15T11:44:56;1.50;;;1.20;;
83511;SDS011;73446;0.000;0.000;2024-01-15T11:50:58;1.15;;;0.80;;
83511;SDS011;73446;0.000;0.000;2024-01-15T11:53:45;2.40;;;1.27;;
83511;SDS011;73446;0.000;0.000;2024-01-15T11:56:32;2.40;;;1.15;;
83511;SDS011;73446;0.000;0.000;2024-01-15T11:59:16;2.78;;;2.03;;
83511;SDS011;73446;0.000;0.000;2024-01-15T12:02:00;1.98;;;1.33;;
83511;SDS011;73446;0.000;0.000;2024-01-15T12:04:46;1.90;;;1.05;;
83511;SDS011;73446;0.000;0.000;2024-01-15T12:07:30;2.42;;;0.70;;
83511;SDS011;73446;0.000;0.000;2024-01-15T12:13:00;2.38;;;0.93;;
83511;SDS011;73446;0.000;0.000;2024-01-15T12:15:50;2.10;;;0.80;;
83511;SDS011;73446;0.000;0.000;2024-01-15T12:18:37;0.80;;;0.80;;
83511;SDS011;73446;0.000;0.000;2024-01-15T12:21:21;3.58;;;2.25;;
83511;SDS011;73446;0.000;0.000;2024-01-15T12:24:07;1.88;;;1.38;;
83511;SDS011;73446;0.000;0.000;2024-01-15T12:26:51;2.42;;;1.10;;
83511;SDS011;73446;0.000;0.000;2024-01-15T12:29:35;1.83;;;1.17;;
83511;SDS011;73446;0.000;0.000;2024-01-15T12:32:22;5.32;;;0.65;;
83511;SDS011;73446;0.000;0.000;2024-01-15T12:35:07;1.15;;;0.88;;
83511;SDS011;73446;0.000;0.000;2024-01-15T12:37:53;3.13;;;0.60;;
83511;SDS011;73446;0.000;0.000;2024-01-15T12:40:37;1.30;;;0.95;;
83511;SDS011;73446;0.000;0.000;2024-01-15T12:43:22;17.58;;;1.55;;
83511;SDS011;73446;0.000;0.000;2024-01-15T12:46:05;5.15;;;1.35;;
83511;SDS011;73446;0.000;0.000;2024-01-15T12:48:50;5.35;;;1.13;;
83511;SDS011;73446;0.000;0.000;2024-01-15T12:51:34;1.33;;;0.82;;
83511;SDS011;73446;0.000;0.000;2024-01-15T12:54:18;3.67;;;0.68;;
83511;SDS011;73446;0.000;0.000;2024-01-15T12:57:02;2.33;;;0.52;;
83511;SDS011;73446;0.000;0.000;2024-01-15T12:59:47;2.00;;;0.82;;
83511;SDS011;73446;0.000;0.000;2024-01-15T13:02:31;1.85;;;0.50;;
83511;SDS011;73446;0.000;0.000;2024-01-15T13:05:15;1.67;;;0.57;;
83511;SDS011;73446;0.000;0.000;2024-01-15T13:08:01;1.77;;;0.60;;
83511;SDS011;73446;0.000;0.000;2024-01-15T13:10:45;3.03;;;0.55;;
83511;SDS011;73446;0.000;0.000;2024-01-15T13:13:29;2.25;;;0.85;;
83511;SDS011;73446;0.000;0.000;2024-01-15T13:16:14;2.72;;;0.40;;
83511;SDS011;73446;0.000;0.000;2024-01-15T13:18:57;2.35;;;0.85;;
83511;SDS011;73446;0.000;0.000;2024-01-15T13:21:42;3.33;;;0.68;;
83511;SDS011;73446;0.000;0.000;2024-01-15T13:24:27;1.55;;;1.17;;
83511;SDS011;73446;0.000;0.000;2024-01-15T13:27:11;1.75;;;1.48;;
83511;SDS011;73446;0.000;0.000;2024-01-15T13:29:55;1.63;;;0.60;;
83511;SDS011;73446;0.000;0.000;2024-01-15T13:32:39;3.47;;;0.60;;
83511;SDS011;73446;0.000;0.000;2024-01-15T13:35:23;1.95;;;0.80;;
83511;SDS011;73446;0.000;0.000;2024-01-15T13:38:07;0.90;;;0.50;;
83511;SDS011;73446;0.000;0.000;2024-01-15T13:40:52;4.32;;;1.40;;
83511;SDS011;73446;0.000;0.000;2024-01-15T13:43:38;0.68;;;0.63;;
83511;SDS011;73446;0.000;0.000;2024-01-15T13:46:23;2.00;;;0.77;;
83511;SDS011;73446;0.000;0.000;2024-01-15T13:49:11;1.75;;;0.82;;
83511;SDS011;73446;0.000;0.000;2024-01-15T13:51:55;0.70;;;0.57;;
83511;SDS011;73446;0.000;0.000;2024-01-15T13:54:39;2.00;;;1.10;;
83511;SDS011;73446;0.000;0.000;2024-01-15T13:57:24;1.92;;;0.65;;
83511;SDS011;73446;0.000;0.000;2024-01-15T14:00:08;1.55;;;1.10;;
83511;SDS011;73446;0.000;0.000;2024-01-15T14:02:55;2.88;;;0.85;;
83511;SDS011;73446;0.000;0.000;2024-01-15T14:05:39;0.80;;;0.60;;
83511;SDS011;73446;0.000;0.000;2024-01-15T14:08:23;3.97;;;0.57;;
83511;SDS011;73446;0.000;0.000;2024-01-15T14:11:09;1.55;;;0.63;;
83511;SDS011;73446;0.000;0.000;2024-01-15T14:13:53;2.33;;;0.82;;
83511;SDS011;73446;0.000;0.000;2024-01-15T14:16:37;1.70;;;0.50;;
83511;SDS011;73446;0.000;0.000;2024-01-15T14:19:22;0.63;;;0.57;;
83511;SDS011;73446;0.000;0.000;2024-01-15T14:22:06;2.72;;;0.68;;
83511;SDS011;73446;0.000;0.000;2024-01-15T14:24:50;1.55;;;0.57;;
83511;SDS011;73446;0.000;0.000;2024-01-15T14:27:34;2.80;;;1.30;;
83511;SDS011;73446;0.000;0.000;2024-01-15T14:30:18;5.25;;;0.68;;
83511;SDS011;73446;0.000;0.000;2024-01-15T14:33:02;7.72;;;1.05;;
83511;SDS011;73446;0.000;0.000;2024-01-15T14:35:46;4.40;;;0.77;;
83511;SDS011;73446;0.000;0.000;2024-01-15T14:38:30;4.72;;;1.13;;
83511;SDS011;73446;0.000;0.000;2024-01-15T14:41:18;4.07;;;0.90;;
83511;SDS011;73446;0.000;0.000;2024-01-15T14:44:02;4.32;;;1.33;;
83511;SDS011;73446;0.000;0.000;2024-01-15T14:46:47;1.25;;;0.38;;
83511;SDS011;73446;0.000;0.000;2024-01-15T14:49:31;2.15;;;0.45;;
83511;SDS011;73446;0.000;0.000;2024-01-15T14:52:16;0.80;;;0.60;;
83511;SDS011;73446;0.000;0.000;2024-01-15T14:55:00;2.22;;;1.00;;
83511;SDS011;73446;0.000;0.000;2024-01-15T14:57:44;9.82;;;1.17;;
83511;SDS011;73446;0.000;0.000;2024-01-15T15:00:28;1.80;;;0.90;;
83511;SDS011;73446;0.000;0.000;2024-01-15T15:03:12;4.15;;;1.10;;
83511;SDS011;73446;0.000;0.000;2024-01-15T15:05:59;4.18;;;0.13;;
83511;SDS011;73446;0.000;0.000;2024-01-15T15:08:42;1.33;;;0.70;;
83511;SDS011;73446;0.000;0.000;2024-01-15T15:11:26;2.03;;;0.70;;
83511;SDS011;73446;0.000;0.000;2024-01-15T15:14:10;1.30;;;0.52;;
83511;SDS011;73446;0.000;0.000;2024-01-15T15:16:54;4.53;;;2.65;;
83511;SDS011;73446;0.000;0.000;2024-01-15T15:19:39;6.72;;;3.45;;
83511;SDS011;73446;0.000;0.000;2024-01-15T15:22:24;6.63;;;5.97;;
83511;SDS011;73446;0.000;0.000;2024-01-15T15:25:08;10.52;;;5.93;;
83511;SDS011;73446;0.000;0.000;2024-01-15T15:27:52;18.55;;;9.52;;
83511;SDS011;73446;0.000;0.000;2024-01-15T15:30:36;23.48;;;11.13;;
83511;SDS011;73446;0.000;0.000;2024-01-15T15:33:23;33.25;;;18.05;;
83511;SDS011;73446;0.000;0.000;2024-01-15T15:36:07;25.60;;;13.60;;
83511;SDS011;73446;0.000;0.000;2024-01-15T15:38:51;35.15;;;19.65;;
83511;SDS011;73446;0.000;0.000;2024-01-15T15:41:35;36.67;;;21.10;;
83511;SDS011;73446;0.000;0.000;2024-01-15T15:44:20;46.33;;;26.30;;
83511;SDS011;73446;0.000;0.000;2024-01-15T15:47:04;47.95;;;27.77;;
83511;SDS011;73446;0.000;0.000;2024-01-15T15:49:48;45.80;;;25.88;;
83511;SDS011;73446;0.000;0.000;2024-01-15T15:55:19;43.03;;;24.67;;
83511;SDS011;73446;0.000;0.000;2024-01-15T15:58:04;43.47;;;25.00;;
83511;SDS011;73446;0.000;0.000;2024-01-15T16:00:49;40.08;;;23.02;;
83511;SDS011;73446;0.000;0.000;2024-01-15T16:03:33;47.53;;;25.50;;
83511;SDS011;73446;0.000;0.000;2024-01-15T16:06:20;47.75;;;26.77;;
83511;SDS011;73446;0.000;0.000;2024-01-15T16:09:04;54.33;;;34.28;;
83511;SDS011;73446;0.000;0.000;2024-01-15T16:11:50;122.90;;;63.28;;
83511;SDS011;73446;0.000;0.000;2024-01-15T16:14:34;129.02;;;71.63;;
83511;SDS011;73446;0.000;0.000;2024-01-15T16:17:18;185.63;;;93.00;;
83511;SDS011;73446;0.000;0.000;2024-01-15T16:20:02;263.85;;;125.75;;
83511;SDS011;73446;0.000;0.000;2024-01-15T16:22:47;237.90;;;117.72;;
83511;SDS011;73446;0.000;0.000;2024-01-15T16:25:31;203.25;;;98.50;;
83511;SDS011;73446;0.000;0.000;2024-01-15T16:28:15;194.90;;;96.97;;
83511;SDS011;73446;0.000;0.000;2024-01-15T16:30:59;189.55;;;93.75;;
83511;SDS011;73446;0.000;0.000;2024-01-15T16:33:43;176.90;;;86.72;;
83511;SDS011;73446;0.000;0.000;2024-01-15T16:36:27;168.35;;;82.57;;
83511;SDS011;73446;0.000;0.000;2024-01-15T16:39:11;163.30;;;83.03;;
83511;SDS011;73446;0.000;0.000;2024-01-15T16:41:55;172.05;;;81.93;;
83511;SDS011;73446;0.000;0.000;2024-01-15T16:44:40;148.45;;;74.50;;
83511;SDS011;73446;0.000;0.000;2024-01-15T16:47:24;139.60;;;67.53;;
83511;SDS011;73446;0.000;0.000;2024-01-15T16:50:08;131.75;;;61.47;;
83511;SDS011;73446;0.000;0.000;2024-01-15T16:52:52;135.52;;;60.42;;
83511;SDS011;73446;0.000;0.000;2024-01-15T16:55:36;131.73;;;59.58;;
83511;SDS011;73446;0.000;0.000;2024-01-15T16:58:20;112.03;;;54.67;;
83511;SDS011;73446;0.000;0.000;2024-01-15T17:01:04;110.55;;;52.20;;
83511;SDS011;73446;0.000;0.000;2024-01-15T17:03:51;115.18;;;56.50;;